createdAt,value
2018-02-27T00:02:19.421Z,72.81
2018-02-27T00:04:46.885Z,72.43
2018-02-27T00:07:14.321Z,72.21
2018-02-27T00:09:41.805Z,72.19
2018-02-27T00:12:09.262Z,72.18
2018-02-27T00:14:36.712Z,72.46
2018-02-27T00:17:04.209Z,71.32
2018-02-27T00:19:31.747Z,71.29
2018-02-27T00:21:59.540Z,71.47
2018-02-27T00:24:26.989Z,71.26
2018-02-27T00:26:54.443Z,71.96
2018-02-27T00:29:21.906Z,71.47
2018-02-27T00:31:49.629Z,72.46
2018-02-27T00:34:17.321Z,72.26
2018-02-27T00:36:44.766Z,72.18
2018-02-27T00:39:12.418Z,72.47
2018-02-27T00:41:39.877Z,72.95
2018-02-27T00:44:07.343Z,73.15
2018-02-27T00:46:35.057Z,71.92
2018-02-27T00:49:02.512Z,71.62
2018-02-27T00:51:29.959Z,72.05
2018-02-27T00:53:57.425Z,72.35
2018-02-27T00:56:24.865Z,72.69
2018-02-27T00:58:52.605Z,73.24
2018-02-27T01:01:20.054Z,74.71
2018-02-27T01:03:47.493Z,75.93
2018-02-27T01:06:14.958Z,77.47
2018-02-27T01:08:42.401Z,77.97
2018-02-27T01:11:09.873Z,77.75
2018-02-27T01:13:37.318Z,77.70
2018-02-27T01:16:04.757Z,77.84
2018-02-27T01:18:32.280Z,76.66
2018-02-27T01:20:59.797Z,76.89
2018-02-27T01:23:27.511Z,76.21
2018-02-27T01:25:54.953Z,76.34
2018-02-27T01:28:22.392Z,76.11
2018-02-27T01:30:49.853Z,76.20
2018-02-27T01:33:17.295Z,76.11
2018-02-27T01:35:44.933Z,75.74
2018-02-27T01:38:12.377Z,75.94
2018-02-27T01:40:39.817Z,76.57
2018-02-27T01:43:07.293Z,76.66
2018-02-27T01:45:34.736Z,74.91
2018-02-27T01:48:02.516Z,76.93
2018-02-27T01:50:29.968Z,78.95
2018-02-27T01:52:57.411Z,80.79
2018-02-27T01:55:24.893Z,83.77
2018-02-27T01:57:52.338Z,84.07
2018-02-27T02:00:19.961Z,84.61
2018-02-27T02:02:47.401Z,83.41
2018-02-27T02:05:14.941Z,83.90
2018-02-27T02:07:42.405Z,83.83
2018-02-27T02:10:09.841Z,83.48
2018-02-27T02:12:37.314Z,83.09
2018-02-27T02:15:04.753Z,82.87
2018-02-27T02:17:32.201Z,82.29
2018-02-27T02:19:59.670Z,81.80
2018-02-27T02:22:27.113Z,81.31
2018-02-27T02:24:54.956Z,80.79
2018-02-27T02:27:22.416Z,79.36
2018-02-27T02:29:49.868Z,79.16
2018-02-27T02:32:17.342Z,79.12
2018-02-27T02:34:44.790Z,79.34
2018-02-27T02:37:12.520Z,79.16
2018-02-27T02:39:40.089Z,79.13
2018-02-27T02:42:24.657Z,79.02
2018-02-27T02:44:52.121Z,79.32
2018-02-27T02:47:19.561Z,79.58
2018-02-27T02:49:47.025Z,79.79
2018-02-27T02:52:14.486Z,80.22
2018-02-27T02:54:41.964Z,80.41
2018-02-27T02:57:09.421Z,80.79
2018-02-27T02:59:36.881Z,80.92
2018-02-27T03:02:04.985Z,79.96
2018-02-27T03:04:32.433Z,79.79
2018-02-27T03:06:59.910Z,78.90
2018-02-27T03:09:27.348Z,77.33
2018-02-27T03:11:54.788Z,71.89
2018-02-27T03:14:22.380Z,64.88
2018-02-27T03:16:49.820Z,65.16
2018-02-27T03:19:17.317Z,64.71
2018-02-27T03:21:44.761Z,63.24
2018-02-27T03:24:12.260Z,63.76
2018-02-27T03:26:39.728Z,63.25
2018-02-27T03:29:07.168Z,62.73
2018-02-27T03:31:34.641Z,62.91
2018-02-27T03:34:02.099Z,62.77
2018-02-27T03:36:29.540Z,63.02
2018-02-27T03:38:57.005Z,62.75
2018-02-27T03:41:24.446Z,62.85
2018-02-27T03:43:51.921Z,62.13
2018-02-27T03:46:19.361Z,63.09
2018-02-27T03:48:46.936Z,63.92
2018-02-27T03:51:14.474Z,63.11
2018-02-27T03:53:41.947Z,63.42
2018-02-27T03:56:09.566Z,63.51
2018-02-27T03:58:37.013Z,64.00
2018-02-27T04:01:04.931Z,63.47
2018-02-27T04:03:32.457Z,63.24
2018-02-27T04:05:59.921Z,62.36
2018-02-27T04:08:27.622Z,62.69
2018-02-27T04:10:55.063Z,62.97
2018-02-27T04:13:22.512Z,62.85
2018-02-27T04:15:49.977Z,63.67
2018-02-27T04:18:17.728Z,63.67
2018-02-27T04:20:45.361Z,61.91
2018-02-27T04:23:12.829Z,62.09
2018-02-27T04:25:40.269Z,62.26
2018-02-27T04:28:07.748Z,62.61
2018-02-27T04:30:35.204Z,61.64
2018-02-27T04:33:02.831Z,61.73
2018-02-27T04:35:30.289Z,61.46
2018-02-27T04:37:57.737Z,61.54
2018-02-27T04:40:25.198Z,61.62
2018-02-27T04:42:52.641Z,62.17
2018-02-27T04:45:20.151Z,61.88
2018-02-27T04:47:47.783Z,61.88
2018-02-27T04:50:15.294Z,61.64
2018-02-27T04:52:42.757Z,61.46
2018-02-27T04:55:10.213Z,62.44
2018-02-27T04:57:37.953Z,62.41
2018-02-27T05:00:05.393Z,61.91
2018-02-27T05:02:32.841Z,62.25
2018-02-27T05:05:00.309Z,62.44
2018-02-27T05:07:27.753Z,62.77
2018-02-27T05:09:55.397Z,63.32
2018-02-27T05:12:22.853Z,63.01
2018-02-27T05:14:50.290Z,61.79
2018-02-27T05:17:17.754Z,62.25
2018-02-27T05:19:45.193Z,62.30
2018-02-27T05:22:12.674Z,62.96
2018-02-27T05:24:40.113Z,63.64
2018-02-27T05:27:07.556Z,62.65
2018-02-27T05:29:35.017Z,62.95
2018-02-27T05:32:02.476Z,63.08
2018-02-27T05:34:30.813Z,62.41
2018-02-27T05:36:58.305Z,61.90
2018-02-27T05:39:25.753Z,62.36
2018-02-27T05:41:53.240Z,62.49
2018-02-27T05:44:20.697Z,62.05
2018-02-27T05:46:48.561Z,62.08
2018-02-27T05:49:16.048Z,62.40
2018-02-27T05:51:43.480Z,63.10
2018-02-27T05:54:10.949Z,63.72
2018-02-27T05:56:38.389Z,63.15
2018-02-27T05:59:06.169Z,63.27
2018-02-27T06:01:33.617Z,62.76
2018-02-27T06:04:01.073Z,63.01
2018-02-27T06:06:28.537Z,62.14
2018-02-27T06:08:56.010Z,62.36
2018-02-27T06:11:23.481Z,61.24
2018-02-27T06:13:50.937Z,62.04
2018-02-27T06:16:18.394Z,62.38
2018-02-27T06:18:45.854Z,62.71
2018-02-27T06:21:13.935Z,62.51
2018-02-27T06:23:41.416Z,61.85
2018-02-27T06:26:08.861Z,61.21
2018-02-27T06:28:36.316Z,61.20
2018-02-27T06:31:03.789Z,60.92
2018-02-27T06:33:31.481Z,60.57
2018-02-27T06:35:59.099Z,60.79
2018-02-27T06:38:26.536Z,60.56
2018-02-27T06:40:53.977Z,60.85
2018-02-27T06:43:21.473Z,60.28
2018-02-27T06:45:48.921Z,60.55
2018-02-27T06:48:16.548Z,60.80
2018-02-27T06:50:44.041Z,59.93
2018-02-27T06:53:11.510Z,60.12
2018-02-27T06:55:38.977Z,59.79
2018-02-27T06:58:06.426Z,59.25
2018-02-27T07:00:34.085Z,59.69
2018-02-27T07:03:02.525Z,59.33
2018-02-27T07:05:29.973Z,59.72
2018-02-27T07:07:57.821Z,60.06
2018-02-27T07:10:25.261Z,59.92
2018-02-27T07:12:52.876Z,59.11
2018-02-27T07:15:20.320Z,58.98
2018-02-27T07:17:47.774Z,59.86
2018-02-27T07:20:15.237Z,59.20
2018-02-27T07:22:42.690Z,58.53
2018-02-27T07:25:10.161Z,58.56
2018-02-27T07:27:37.605Z,58.19
2018-02-27T07:30:05.061Z,57.99
2018-02-27T07:32:32.520Z,57.54
2018-02-27T07:35:00.313Z,57.56
2018-02-27T07:37:27.973Z,57.41
2018-02-27T07:39:55.422Z,57.63
2018-02-27T07:42:22.865Z,57.31
2018-02-27T07:44:50.370Z,57.40
2018-02-27T07:47:17.884Z,57.21
2018-02-27T07:49:45.313Z,56.89
2018-02-27T07:52:12.753Z,57.48
2018-02-27T07:54:41.046Z,57.30
2018-02-27T07:57:08.510Z,57.60
2018-02-27T07:59:35.981Z,57.17
2018-02-27T08:02:03.490Z,56.67
2018-02-27T08:04:30.928Z,57.16
2018-02-27T08:06:58.395Z,57.72
2018-02-27T08:09:26.330Z,57.79
2018-02-27T08:11:53.777Z,56.44
2018-02-27T08:14:21.345Z,58.43
2018-02-27T08:16:48.791Z,56.08
2018-02-27T08:19:16.233Z,56.11
2018-02-27T08:21:43.692Z,56.39
2018-02-27T08:24:11.145Z,55.23
2018-02-27T08:26:38.811Z,55.01
2018-02-27T08:29:06.334Z,55.40
2018-02-27T08:31:33.782Z,54.13
2018-02-27T08:34:01.296Z,55.10
2018-02-27T08:36:28.743Z,56.40
2018-02-27T08:38:56.459Z,54.91
2018-02-27T08:41:24.345Z,54.22
2018-02-27T08:43:51.962Z,53.93
2018-02-27T08:46:19.440Z,53.70
2018-02-27T08:48:46.879Z,54.56
2018-02-27T08:51:14.670Z,53.50
2018-02-27T08:53:42.121Z,52.47
2018-02-27T08:56:09.604Z,52.54
2018-02-27T08:58:37.043Z,52.81
2018-02-27T09:01:04.522Z,52.23
2018-02-27T09:03:31.999Z,50.54
2018-02-27T09:05:59.438Z,52.28
2018-02-27T09:08:26.888Z,51.41
2018-02-27T09:10:54.349Z,52.91
2018-02-27T09:13:21.793Z,52.68
2018-02-27T09:15:49.420Z,50.61
2018-02-27T09:18:16.860Z,50.20
2018-02-27T09:20:44.421Z,50.67
2018-02-27T09:23:11.905Z,51.91
2018-02-27T09:25:39.345Z,50.83
2018-02-27T09:28:07.083Z,51.69
2018-02-27T09:30:34.521Z,49.62
2018-02-27T09:33:02.019Z,49.25
2018-02-27T09:35:29.481Z,49.38
2018-02-27T09:37:56.953Z,50.68
2018-02-27T09:40:25.197Z,50.93
2018-02-27T09:42:52.685Z,48.66
2018-02-27T09:45:20.148Z,48.99
2018-02-27T09:47:47.623Z,49.20
2018-02-27T09:50:15.062Z,48.24
2018-02-27T09:52:42.628Z,49.18
2018-02-27T09:55:10.089Z,49.09
2018-02-27T09:57:37.541Z,48.06
2018-02-27T10:00:05.009Z,48.15
2018-02-27T10:02:32.735Z,47.37
2018-02-27T10:05:00.350Z,46.02
2018-02-27T10:07:27.813Z,48.58
2018-02-27T10:09:55.273Z,47.96
2018-02-27T10:12:22.737Z,46.74
2018-02-27T10:14:50.210Z,45.35
2018-02-27T10:17:17.811Z,46.35
2018-02-27T10:19:45.284Z,46.76
2018-02-27T10:22:12.806Z,46.29
2018-02-27T10:24:40.273Z,44.58
2018-02-27T10:27:08.507Z,45.07
2018-02-27T10:29:36.184Z,45.05
2018-02-27T10:32:03.632Z,45.18
2018-02-27T10:34:31.072Z,44.95
2018-02-27T10:36:58.553Z,44.64
2018-02-27T10:39:26.036Z,46.10
2018-02-27T10:41:53.481Z,44.82
2018-02-27T10:44:20.927Z,46.43
2018-02-27T10:46:48.377Z,45.88
2018-02-27T10:49:15.869Z,45.56
2018-02-27T10:51:43.310Z,46.22
2018-02-27T10:54:10.977Z,46.72
2018-02-27T10:56:38.444Z,46.57
2018-02-27T10:59:05.899Z,46.49
2018-02-27T11:01:33.364Z,45.32
2018-02-27T11:04:00.806Z,45.52
2018-02-27T11:06:28.521Z,45.77
2018-02-27T11:08:55.995Z,45.92
2018-02-27T11:11:23.442Z,44.59
2018-02-27T11:13:50.943Z,45.03
2018-02-27T11:16:18.405Z,45.16
2018-02-27T11:18:45.884Z,44.21
2018-02-27T11:21:13.326Z,44.96
2018-02-27T11:23:40.771Z,44.70
2018-02-27T11:26:09.148Z,45.50
2018-02-27T11:28:36.597Z,44.91
2018-02-27T11:31:04.345Z,43.42
2018-02-27T11:33:31.789Z,44.04
2018-02-27T11:35:59.241Z,43.00
2018-02-27T11:38:26.744Z,43.70
2018-02-27T11:40:54.189Z,43.40
2018-02-27T11:43:21.893Z,43.43
2018-02-27T11:45:49.433Z,44.14
2018-02-27T11:48:16.889Z,44.27
2018-02-27T11:50:44.348Z,43.73
2018-02-27T11:53:11.791Z,42.35
2018-02-27T11:55:39.477Z,42.56
2018-02-27T11:58:06.986Z,44.18
2018-02-27T12:00:34.600Z,42.94
2018-02-27T12:03:02.178Z,42.64
2018-02-27T12:05:29.649Z,41.64
2018-02-27T12:07:57.116Z,42.38
2018-02-27T12:10:24.564Z,42.51
2018-02-27T12:12:52.352Z,41.40
2018-02-27T12:15:19.877Z,40.76
2018-02-27T12:17:47.335Z,40.96
2018-02-27T12:20:15.003Z,41.26
2018-02-27T12:22:44.425Z,40.43
2018-02-27T12:25:11.870Z,40.45
2018-02-27T12:27:39.345Z,41.05
2018-02-27T12:30:06.810Z,39.25
2018-02-27T12:32:34.521Z,39.77
2018-02-27T12:35:01.974Z,40.78
2018-02-27T12:37:29.429Z,39.81
2018-02-27T12:39:56.919Z,40.23
2018-02-27T12:42:24.365Z,40.29
2018-02-27T12:44:51.846Z,39.51
2018-02-27T12:47:19.737Z,38.87
2018-02-27T12:49:47.257Z,38.67
2018-02-27T12:52:14.717Z,39.09
2018-02-27T12:54:42.174Z,39.03
2018-02-27T12:57:09.793Z,38.88
2018-02-27T12:59:37.358Z,38.82
2018-02-27T13:02:04.801Z,38.24
2018-02-27T13:04:32.261Z,38.34
2018-02-27T13:06:59.709Z,38.62
2018-02-27T13:09:27.457Z,39.52
2018-02-27T13:11:54.913Z,38.72
2018-02-27T13:14:22.365Z,37.91
2018-02-27T13:16:49.902Z,38.00
2018-02-27T13:19:17.370Z,38.86
2018-02-27T13:21:45.021Z,39.27
2018-02-27T13:24:12.457Z,38.62
2018-02-27T13:26:39.901Z,38.64
2018-02-27T13:29:07.369Z,38.61
2018-02-27T13:31:34.813Z,38.44
2018-02-27T13:34:03.000Z,38.89
2018-02-27T13:36:30.453Z,38.89
2018-02-27T13:38:57.896Z,38.45
2018-02-27T13:41:25.357Z,38.12
2018-02-27T13:43:52.828Z,38.57
2018-02-27T13:46:20.517Z,38.76
2018-02-27T13:48:48.005Z,38.22
2018-02-27T13:51:15.445Z,38.16
2018-02-27T13:53:42.929Z,38.16
2018-02-27T13:56:10.377Z,38.46
2018-02-27T13:58:38.081Z,37.81
2018-02-27T14:01:05.539Z,37.62
2018-02-27T14:03:33.080Z,38.04
2018-02-27T14:06:00.776Z,37.43
2018-02-27T14:08:28.228Z,37.84
2018-02-27T14:10:56.109Z,36.81
2018-02-27T14:13:23.552Z,36.50
2018-02-27T14:15:51.013Z,36.31
2018-02-27T14:18:18.481Z,35.92
2018-02-27T14:20:46.682Z,35.89
2018-02-27T14:23:14.378Z,36.48
2018-02-27T14:25:41.829Z,36.24
2018-02-27T14:28:09.269Z,36.05
2018-02-27T14:30:36.734Z,35.97
2018-02-27T14:33:04.310Z,35.49
2018-02-27T14:35:32.266Z,35.22
2018-02-27T14:37:59.713Z,35.17
2018-02-27T14:40:27.158Z,35.47
2018-02-27T14:42:54.657Z,35.26
2018-02-27T14:45:22.109Z,35.14
2018-02-27T14:47:49.713Z,35.15
2018-02-27T14:50:17.324Z,34.87
2018-02-27T14:52:44.812Z,34.72
2018-02-27T14:55:12.321Z,34.85
2018-02-27T14:57:39.773Z,35.26
2018-02-27T15:00:07.262Z,34.87
2018-02-27T15:02:34.705Z,35.13
2018-02-27T15:05:02.157Z,35.06
2018-02-27T15:07:29.831Z,34.59
2018-02-27T15:09:57.357Z,34.04
2018-02-27T15:12:24.841Z,34.68
2018-02-27T15:14:52.298Z,34.44
2018-02-27T15:17:19.765Z,34.57
2018-02-27T15:19:47.761Z,34.22
2018-02-27T15:22:15.198Z,35.17
2018-02-27T15:24:42.781Z,34.40
2018-02-27T15:27:10.253Z,34.94
2018-02-27T15:29:37.702Z,35.14
2018-02-27T15:32:05.165Z,34.97
2018-02-27T15:34:32.618Z,35.09
2018-02-27T15:37:00.113Z,35.04
2018-02-27T15:39:27.562Z,34.97
2018-02-27T15:41:55.017Z,34.71
2018-02-27T15:44:22.531Z,34.46
2018-02-27T15:46:49.969Z,34.45
2018-02-27T15:49:17.681Z,33.99
2018-02-27T15:51:45.213Z,35.02
2018-02-27T15:54:12.658Z,35.19
2018-02-27T15:56:40.154Z,35.90
2018-02-27T15:59:07.609Z,35.39
2018-02-27T16:01:35.361Z,34.98
2018-02-27T16:04:02.822Z,35.26
2018-02-27T16:06:30.450Z,35.71
2018-02-27T16:08:58.074Z,35.19
2018-02-27T16:11:25.522Z,35.77
2018-02-27T16:13:53.027Z,35.50
2018-02-27T16:16:20.518Z,35.67
2018-02-27T16:18:49.581Z,35.37
2018-02-27T16:21:17.069Z,35.77
2018-02-27T16:23:44.516Z,35.55
2018-02-27T16:26:12.385Z,36.23
2018-02-27T16:28:39.826Z,35.78
2018-02-27T16:31:07.319Z,35.38
2018-02-27T16:33:36.749Z,36.30
2018-02-27T16:36:04.982Z,36.13
2018-02-27T16:38:32.952Z,36.35
2018-02-27T16:41:01.974Z,37.29
2018-02-27T16:43:29.450Z,37.51
2018-02-27T16:45:56.957Z,37.68
2018-02-27T16:48:24.401Z,37.74
2018-02-27T16:50:51.881Z,37.44
2018-02-27T16:53:19.405Z,37.46
2018-02-27T16:55:46.861Z,37.69
2018-02-27T16:58:14.327Z,37.97
2018-02-27T17:00:41.794Z,37.91
2018-02-27T17:03:09.293Z,38.19
2018-02-27T17:05:36.750Z,38.48
2018-02-27T17:08:04.320Z,38.66
2018-02-27T17:10:31.814Z,38.64
2018-02-27T17:12:59.637Z,38.58
2018-02-27T17:15:27.408Z,39.37
2018-02-27T17:17:54.868Z,39.86
2018-02-27T17:20:22.313Z,39.65
2018-02-27T17:22:49.781Z,40.16
2018-02-27T17:25:17.238Z,40.14
2018-02-27T17:27:44.733Z,40.26
2018-02-27T17:30:12.184Z,40.54
2018-02-27T17:32:39.644Z,40.66
2018-02-27T17:35:07.133Z,40.77
2018-02-27T17:37:34.588Z,41.18
2018-02-27T17:40:02.885Z,40.80
2018-02-27T17:42:30.327Z,41.13
2018-02-27T17:44:57.773Z,41.13
2018-02-27T17:47:25.240Z,41.22
2018-02-27T17:49:52.760Z,41.04
2018-02-27T17:52:20.375Z,41.59
2018-02-27T17:54:47.846Z,41.55
2018-02-27T17:57:15.306Z,41.84
2018-02-27T17:59:42.778Z,41.79
2018-02-27T18:02:10.225Z,42.36
2018-02-27T18:04:38.045Z,42.29
2018-02-27T18:07:05.510Z,42.53
2018-02-27T18:09:32.968Z,42.93
2018-02-27T18:12:00.470Z,42.63
2018-02-27T18:14:28.030Z,42.65
2018-02-27T18:16:56.096Z,42.96
2018-02-27T18:19:23.592Z,43.30
2018-02-27T18:21:51.257Z,43.71
2018-02-27T18:24:18.766Z,43.50
2018-02-27T18:26:46.387Z,43.69
2018-02-27T18:29:14.186Z,44.05
2018-02-27T18:31:41.699Z,44.41
2018-02-27T18:34:09.564Z,44.82
2018-02-27T18:36:37.048Z,44.94
2018-02-27T18:39:04.510Z,44.73
2018-02-27T18:41:32.284Z,45.28
2018-02-27T18:44:00.026Z,45.43
2018-02-27T18:46:27.365Z,45.47
2018-02-27T18:48:54.897Z,45.63
2018-02-27T18:51:22.349Z,45.86
2018-02-27T18:53:50.201Z,46.26
2018-02-27T18:56:17.738Z,46.13
2018-02-27T18:58:45.228Z,46.40
2018-02-27T19:01:12.697Z,46.32
2018-02-27T19:03:40.182Z,46.39
2018-02-27T19:06:07.686Z,46.73
2018-02-27T19:08:35.138Z,47.74
2018-02-27T19:11:02.591Z,47.73
2018-02-27T19:13:30.074Z,47.84
2018-02-27T19:15:57.538Z,47.99
2018-02-27T19:18:26.372Z,48.00
2018-02-27T19:20:53.857Z,48.00
2018-02-27T19:23:21.325Z,48.51
2018-02-27T19:25:48.885Z,48.68
2018-02-27T19:28:16.336Z,48.78
2018-02-27T19:30:44.299Z,48.76
2018-02-27T19:33:11.782Z,48.79
2018-02-27T19:35:39.313Z,49.00
2018-02-27T19:38:06.868Z,49.42
2018-02-27T19:40:34.600Z,49.73
2018-02-27T19:43:02.418Z,49.93
2018-02-27T19:45:29.904Z,50.24
2018-02-27T19:47:57.382Z,50.46
2018-02-27T19:50:24.939Z,50.57
2018-02-27T19:52:52.836Z,50.84
2018-02-27T19:55:20.643Z,50.40
2018-02-27T19:57:48.944Z,50.48
2018-02-27T20:00:16.425Z,50.87
2018-02-27T20:02:43.885Z,50.82
2018-02-27T20:05:11.344Z,50.82
2018-02-27T20:07:38.975Z,50.96
2018-02-27T20:10:07.266Z,51.34
2018-02-27T20:12:34.720Z,51.09
2018-02-27T20:15:02.358Z,51.20
2018-02-27T20:17:29.834Z,51.33
2018-02-27T20:19:57.325Z,51.81
2018-02-27T20:22:30.542Z,51.69
2018-02-27T20:24:58.164Z,51.60
2018-02-27T20:27:25.617Z,51.57
2018-02-27T20:29:53.069Z,51.59
2018-02-27T20:32:21.477Z,52.27
2018-02-27T20:34:48.938Z,51.83
2018-02-27T20:37:16.945Z,52.36
2018-02-27T20:39:44.818Z,52.67
2018-02-27T20:42:12.398Z,52.60
2018-02-27T20:44:39.873Z,52.59
2018-02-27T20:47:07.334Z,52.86
2018-02-27T20:49:34.902Z,52.98
2018-02-27T20:52:02.741Z,52.94
2018-02-27T20:54:30.206Z,53.35
2018-02-27T20:56:58.427Z,53.43
2018-02-27T20:59:25.874Z,53.58
2018-02-27T21:01:53.484Z,53.78
2018-02-27T21:04:20.933Z,53.30
2018-02-27T21:06:48.389Z,53.16
2018-02-27T21:09:15.870Z,52.81
2018-02-27T21:11:43.313Z,52.93
2018-02-27T21:14:10.781Z,53.01
2018-02-27T21:16:38.257Z,53.14
2018-02-27T21:19:05.714Z,53.03
2018-02-27T21:21:33.189Z,53.23
2018-02-27T21:24:00.693Z,53.62
2018-02-27T21:26:28.488Z,53.78
2018-02-27T21:28:56.025Z,54.11
2018-02-27T21:31:23.496Z,54.36
2018-02-27T21:33:50.953Z,54.49
2018-02-27T21:36:18.562Z,54.58
2018-02-27T21:38:46.256Z,54.98
2018-02-27T21:41:13.701Z,55.17
2018-02-27T21:43:41.480Z,55.48
2018-02-27T21:46:09.002Z,55.37
2018-02-27T21:48:36.425Z,55.42
2018-02-27T21:51:04.099Z,55.49
2018-02-27T21:53:31.562Z,55.69
2018-02-27T21:55:59.017Z,55.40
2018-02-27T21:58:26.550Z,55.94
2018-02-27T22:00:53.993Z,56.29
2018-02-27T22:03:21.558Z,56.17
2018-02-27T22:05:49.896Z,56.56
2018-02-27T22:08:17.342Z,56.70
2018-02-27T22:10:44.818Z,56.69
2018-02-27T22:13:13.162Z,56.89
2018-02-27T22:15:40.655Z,57.06
2018-02-27T22:18:08.109Z,57.29
2018-02-27T22:20:35.553Z,57.46
2018-02-27T22:23:03.053Z,57.55
2018-02-27T22:25:30.510Z,57.72
2018-02-27T22:27:57.973Z,57.76
2018-02-27T22:30:25.517Z,58.37
2018-02-27T22:32:52.957Z,58.43
2018-02-27T22:35:20.423Z,58.45
2018-02-27T22:37:48.852Z,58.61
2018-02-27T22:40:16.457Z,58.78
2018-02-27T22:42:43.906Z,58.61
2018-02-27T22:45:11.474Z,58.48
2018-02-27T22:47:38.937Z,58.62
2018-02-27T22:50:06.450Z,58.51
2018-02-27T22:52:33.917Z,58.76
2018-02-27T22:55:01.372Z,58.73
2018-02-27T22:57:28.821Z,58.86
2018-02-27T22:59:56.286Z,59.25
2018-02-27T23:02:23.761Z,59.27
2018-02-27T23:04:51.361Z,59.33
2018-02-27T23:07:18.845Z,59.06
2018-02-27T23:09:46.288Z,59.00
2018-02-27T23:12:13.757Z,58.92
2018-02-27T23:14:41.201Z,59.15
2018-02-27T23:17:08.809Z,58.87
2018-02-27T23:19:36.253Z,59.15
2018-02-27T23:22:03.703Z,59.12
2018-02-27T23:24:39.465Z,58.92
2018-02-27T23:27:09.479Z,58.70
2018-02-27T23:29:40.353Z,58.89
2018-02-27T23:32:08.850Z,59.35
2018-02-27T23:34:39.256Z,59.38
2018-02-27T23:37:06.714Z,58.89
2018-02-27T23:39:34.370Z,58.75
2018-02-27T23:42:01.809Z,58.66
2018-02-27T23:44:29.275Z,58.44
2018-02-27T23:46:57.145Z,58.20
2018-02-27T23:49:24.581Z,58.38
2018-02-27T23:51:52.513Z,58.58
2018-02-27T23:54:19.953Z,58.42
2018-02-27T23:56:47.396Z,58.51
2018-02-27T23:59:14.857Z,58.78
